sensor_id;sensor_type;location;lat;lon;timestamp;pressure;altitude;pressure_sealevel;temperature;humidity
6615;BME280;3343;42.896;23.912;2023-04-10T00:01:07;73608.53;;;-145.80;69.60
6615;BME280;3343;42.896;23.912;2023-04-10T00:03:34;73606.53;;;-145.80;69.16
6615;BME280;3343;42.896;23.912;2023-04-10T00:06:03;73594.50;;;-145.80;68.74
6615;BME280;3343;42.896;23.912;2023-04-10T00:08:32;73586.47;;;-145.80;68.42
6615;BME280;3343;42.896;23.912;2023-04-10T00:10:58;73602.53;;;-145.80;69.30
6615;BME280;3343;42.896;23.912;2023-04-10T00:13:25;73608.53;;;-145.80;69.58
6615;BME280;3343;42.896;23.912;2023-04-10T00:15:52;73646.66;;;-145.80;70.54
6615;BME280;3343;42.896;23.912;2023-04-10T00:18:19;73666.72;;;-145.80;71.12
6615;BME280;3343;42.896;23.912;2023-04-10T00:20:46;73646.66;;;-145.80;70.61
6615;BME280;3343;42.896;23.912;2023-04-10T00:23:14;73626.59;;;-145.80;70.80
6615;BME280;3343;42.896;23.912;2023-04-10T00:25:41;73658.69;;;-145.80;71.14
6615;BME280;3343;42.896;23.912;2023-04-10T00:28:08;73662.69;;;-145.80;71.00
6615;BME280;3343;42.896;23.912;2023-04-10T00:30:34;73638.63;;;-145.80;70.74
6615;BME280;3343;42.896;23.912;2023-04-10T00:33:01;73616.56;;;-145.80;70.18
6615;BME280;3343;42.896;23.912;2023-04-10T00:35:28;73600.50;;;-145.80;69.51
6615;BME280;3343;42.896;23.912;2023-04-10T00:37:56;73570.44;;;-145.80;68.97
6615;BME280;3343;42.896;23.912;2023-04-10T00:40:25;73558.38;;;-145.80;68.54
6615;BME280;3343;42.896;23.912;2023-04-10T00:42:51;73580.47;;;-145.80;68.53
6615;BME280;3343;42.896;23.912;2023-04-10T00:45:18;73564.41;;;-145.80;67.91
6615;BME280;3343;42.896;23.912;2023-04-10T00:47:45;73572.44;;;-145.80;68.36
6615;BME280;3343;42.896;23.912;2023-04-10T00:50:12;73594.50;;;-145.80;68.78
6615;BME280;3343;42.896;23.912;2023-04-10T00:52:39;73608.53;;;-145.80;69.27
6615;BME280;3343;42.896;23.912;2023-04-10T00:55:08;73602.53;;;-145.80;70.06
6615;BME280;3343;42.896;23.912;2023-04-10T00:57:38;73616.56;;;-145.80;70.66
6615;BME280;3343;42.896;23.912;2023-04-10T01:00:06;73618.56;;;-145.80;70.64
6615;BME280;3343;42.896;23.912;2023-04-10T01:02:33;73626.59;;;-145.80;70.54
6615;BME280;3343;42.896;23.912;2023-04-10T01:05:00;73648.66;;;-145.80;71.00
6615;BME280;3343;42.896;23.912;2023-04-10T01:07:37;73604.53;;;-145.80;70.54
6615;BME280;3343;42.896;23.912;2023-04-10T01:10:14;73614.56;;;-145.80;70.56
6615;BME280;3343;42.896;23.912;2023-04-10T01:12:54;73622.56;;;-145.80;70.64
6615;BME280;3343;42.896;23.912;2023-04-10T01:15:27;73606.53;;;-145.80;70.69
6615;BME280;3343;42.896;23.912;2023-04-10T01:18:01;73594.50;;;-145.80;70.45
6615;BME280;3343;42.896;23.912;2023-04-10T01:20:32;73578.44;;;-145.80;70.19
6615;BME280;3343;42.896;23.912;2023-04-10T01:23:22;73566.41;;;-145.80;69.51
6615;BME280;3343;42.896;23.912;2023-04-10T01:25:58;73576.44;;;-145.80;69.80
6615;BME280;3343;42.896;23.912;2023-04-10T01:31:34;73594.50;;;-145.80;69.90
6615;BME280;3343;42.896;23.912;2023-04-10T01:34:06;73582.47;;;-145.80;69.60
6615;BME280;3343;42.896;23.912;2023-04-10T01:36:36;73616.56;;;-145.80;70.18
6615;BME280;3343;42.896;23.912;2023-04-10T01:39:04;73602.53;;;-145.80;69.77
6615;BME280;3343;42.896;23.912;2023-04-10T01:41:32;73616.56;;;-145.80;70.11
6615;BME280;3343;42.896;23.912;2023-04-10T01:44:01;73630.59;;;-145.80;70.16
6615;BME280;3343;42.896;23.912;2023-04-10T01:46:31;73676.75;;;-145.80;70.66
6615;BME280;3343;42.896;23.912;2023-04-10T01:49:00;73700.81;;;-145.80;71.31
6615;BME280;3343;42.896;23.912;2023-04-10T01:51:30;73724.88;;;-145.80;71.83
6615;BME280;3343;42.896;23.912;2023-04-10T01:53:57;73742.94;;;-145.80;71.99
6615;BME280;3343;42.896;23.912;2023-04-10T01:56:25;73738.91;;;-145.80;71.96
6615;BME280;3343;42.896;23.912;2023-04-10T01:58:52;73734.91;;;-145.80;71.57
6615;BME280;3343;42.896;23.912;2023-04-10T02:01:19;73716.84;;;-145.80;70.71
6615;BME280;3343;42.896;23.912;2023-04-10T02:03:48;73676.75;;;-145.80;69.92
6615;BME280;3343;42.896;23.912;2023-04-10T02:06:22;73658.69;;;-145.80;69.47
6615;BME280;3343;42.896;23.912;2023-04-10T02:08:55;73648.66;;;-145.80;69.35
6615;BME280;3343;42.896;23.912;2023-04-10T02:11:29;73634.63;;;-145.80;68.90
6615;BME280;3343;42.896;23.912;2023-04-10T02:13:59;73656.69;;;-145.80;69.39
6615;BME280;3343;42.896;23.912;2023-04-10T02:16:29;73680.75;;;-145.80;70.01
6615;BME280;3343;42.896;23.912;2023-04-10T02:18:59;73708.84;;;-145.80;71.09
6615;BME280;3343;42.896;23.912;2023-04-10T02:21:27;73706.81;;;-145.80;70.99
6615;BME280;3343;42.896;23.912;2023-04-10T02:23:56;73698.81;;;-145.80;71.18
6615;BME280;3343;42.896;23.912;2023-04-10T02:26:23;73732.91;;;-145.80;71.48
6615;BME280;3343;42.896;23.912;2023-04-10T02:28:50;73732.91;;;-145.80;71.96
6615;BME280;3343;42.896;23.912;2023-04-10T02:31:16;73716.84;;;-145.80;71.57
6615;BME280;3343;42.896;23.912;2023-04-10T02:33:43;73692.78;;;-145.80;71.13
6615;BME280;3343;42.896;23.912;2023-04-10T02:36:11;73638.63;;;-145.80;70.40
6615;BME280;3343;42.896;23.912;2023-04-10T02:38:38;73626.59;;;-145.80;69.60
6615;BME280;3343;42.896;23.912;2023-04-10T02:41:05;73610.53;;;-145.80;69.60
6615;BME280;3343;42.896;23.912;2023-04-10T02:43:32;73650.66;;;-145.80;70.13
6615;BME280;3343;42.896;23.912;2023-04-10T02:45:59;73652.66;;;-145.80;70.40
6615;BME280;3343;42.896;23.912;2023-04-10T02:48:26;73666.72;;;-145.80;70.55
6615;BME280;3343;42.896;23.912;2023-04-10T02:50:55;73612.56;;;-145.80;69.94
6615;BME280;3343;42.896;23.912;2023-04-10T02:53:24;73618.56;;;-145.80;69.75
6615;BME280;3343;42.896;23.912;2023-04-10T02:55:51;73650.66;;;-145.80;70.52
6615;BME280;3343;42.896;23.912;2023-04-10T02:58:19;73626.59;;;-145.80;69.85
6615;BME280;3343;42.896;23.912;2023-04-10T03:00:49;73614.56;;;-145.80;69.88
6615;BME280;3343;42.896;23.912;2023-04-10T03:03:17;73598.50;;;-145.80;69.41
6615;BME280;3343;42.896;23.912;2023-04-10T03:05:44;73582.47;;;-145.80;68.97
6615;BME280;3343;42.896;23.912;2023-04-10T03:08:14;73600.50;;;-145.80;69.31
6615;BME280;3343;42.896;23.912;2023-04-10T03:10:43;73576.44;;;-145.80;68.94
6615;BME280;3343;42.896;23.912;2023-04-10T03:13:11;73594.50;;;-145.80;69.17
6615;BME280;3343;42.896;23.912;2023-04-10T03:15:38;73592.50;;;-145.80;69.02
6615;BME280;3343;42.896;23.912;2023-04-10T03:18:05;73588.47;;;-145.80;69.08
6615;BME280;3343;42.896;23.912;2023-04-10T03:20:32;73610.53;;;-145.80;69.83
6615;BME280;3343;42.896;23.912;2023-04-10T03:22:59;73598.50;;;-145.80;69.49
6615;BME280;3343;42.896;23.912;2023-04-10T03:25:26;73566.41;;;-145.80;68.35
6615;BME280;3343;42.896;23.912;2023-04-10T03:27:54;73556.38;;;-145.80;68.30
6615;BME280;3343;42.896;23.912;2023-04-10T03:30:21;73614.56;;;-145.80;69.09
6615;BME280;3343;42.896;23.912;2023-04-10T03:32:47;73614.56;;;-145.80;69.60
6615;BME280;3343;42.896;23.912;2023-04-10T03:35:14;73598.50;;;-145.80;69.34
6615;BME280;3343;42.896;23.912;2023-04-10T03:37:41;73620.56;;;-145.80;69.73
6615;BME280;3343;42.896;23.912;2023-04-10T03:40:09;73600.50;;;-145.80;69.79
6615;BME280;3343;42.896;23.912;2023-04-10T03:42:36;73598.50;;;-145.80;69.81
6615;BME280;3343;42.896;23.912;2023-04-10T03:45:05;73572.44;;;-145.80;69.13
6615;BME280;3343;42.896;23.912;2023-04-10T03:47:33;73596.50;;;-145.80;69.34
6615;BME280;3343;42.896;23.912;2023-04-10T03:50:00;73604.53;;;-145.80;69.61
6615;BME280;3343;42.896;23.912;2023-04-10T03:52:26;73622.56;;;-145.80;69.81
6615;BME280;3343;42.896;23.912;2023-04-10T03:54:53;73628.59;;;-145.80;69.72
6615;BME280;3343;42.896;23.912;2023-04-10T03:57:20;73650.66;;;-145.80;70.32
6615;BME280;3343;42.896;23.912;2023-04-10T03:59:47;73670.72;;;-145.80;70.70
6615;BME280;3343;42.896;23.912;2023-04-10T04:02:15;73640.63;;;-145.80;70.68
6615;BME280;3343;42.896;23.912;2023-04-10T04:04:42;73664.69;;;-145.80;70.94
6615;BME280;3343;42.896;23.912;2023-04-10T04:07:08;73678.75;;;-145.80;71.28
6615;BME280;3343;42.896;23.912;2023-04-10T04:09:36;73704.81;;;-145.80;72.00
6615;BME280;3343;42.896;23.912;2023-04-10T04:12:03;73688.78;;;-145.80;71.64
6615;BME280;3343;42.896;23.912;2023-04-10T04:14:30;73666.72;;;-145.80;71.00
6615;BME280;3343;42.896;23.912;2023-04-10T04:16:57;73666.72;;;-145.80;70.98
6615;BME280;3343;42.896;23.912;2023-04-10T04:19:25;73644.66;;;-145.80;70.11
6615;BME280;3343;42.896;23.912;2023-04-10T04:21:52;73672.72;;;-145.80;70.49
6615;BME280;3343;42.896;23.912;2023-04-10T04:24:19;73656.69;;;-145.80;69.65
6615;BME280;3343;42.896;23.912;2023-04-10T04:26:46;73650.66;;;-145.80;69.44
6615;BME280;3343;42.896;23.912;2023-04-10T04:29:13;73654.66;;;-145.80;69.70
6615;BME280;3343;42.896;23.912;2023-04-10T04:31:40;73664.69;;;-145.80;69.44
6615;BME280;3343;42.896;23.912;2023-04-10T04:34:06;73658.69;;;-145.80;69.08
6615;BME280;3343;42.896;23.912;2023-04-10T04:36:35;73630.59;;;-145.80;68.89
6615;BME280;3343;42.896;23.912;2023-04-10T04:39:01;73638.63;;;-145.80;68.48
6615;BME280;3343;42.896;23.912;2023-04-10T04:41:28;73636.63;;;-145.80;68.81
6615;BME280;3343;42.896;23.912;2023-04-10T04:43:56;73662.69;;;-145.80;68.49
6615;BME280;3343;42.896;23.912;2023-04-10T04:46:23;73658.69;;;-145.80;69.52
6615;BME280;3343;42.896;23.912;2023-04-10T04:48:50;73682.75;;;-145.80;70.28
6615;BME280;3343;42.896;23.912;2023-04-10T04:51:17;73738.91;;;-145.80;71.36
6615;BME280;3343;42.896;23.912;2023-04-10T04:53:45;73706.81;;;-145.80;71.45
6615;BME280;3343;42.896;23.912;2023-04-10T04:56:11;73718.88;;;-145.80;71.13
6615;BME280;3343;42.896;23.912;2023-04-10T04:58:38;73682.75;;;-145.80;70.81
6615;BME280;3343;42.896;23.912;2023-04-10T05:01:06;73650.66;;;-145.80;69.48
6615;BME280;3343;42.896;23.912;2023-04-10T05:03:33;73686.78;;;-145.80;69.77
6615;BME280;3343;42.896;23.912;2023-04-10T05:06:01;73644.66;;;-145.80;68.99
6615;BME280;3343;42.896;23.912;2023-04-10T05:08:27;73654.66;;;-145.80;69.27
6615;BME280;3343;42.896;23.912;2023-04-10T05:10:56;73618.56;;;-145.80;69.47
6615;BME280;3343;42.896;23.912;2023-04-10T05:13:22;73624.59;;;-145.80;68.90
6615;BME280;3343;42.896;23.912;2023-04-10T05:15:50;73606.53;;;-145.80;68.98
6615;BME280;3343;42.896;23.912;2023-04-10T05:18:17;73614.56;;;-145.80;68.64
6615;BME280;3343;42.896;23.912;2023-04-10T05:20:48;73580.47;;;-145.80;68.04
6615;BME280;3343;42.896;23.912;2023-04-10T05:23:15;73608.53;;;-145.80;68.11
6615;BME280;3343;42.896;23.912;2023-04-10T05:25:42;73634.63;;;-145.80;69.25
6615;BME280;3343;42.896;23.912;2023-04-10T05:28:10;73642.63;;;-145.80;69.70
6615;BME280;3343;42.896;23.912;2023-04-10T05:30:36;73668.72;;;-145.80;69.87
6615;BME280;3343;42.896;23.912;2023-04-10T05:33:03;73670.72;;;-145.80;70.25
6615;BME280;3343;42.896;23.912;2023-04-10T05:35:30;73652.66;;;-145.80;69.83
6615;BME280;3343;42.896;23.912;2023-04-10T05:37:57;73644.66;;;-145.80;69.77
6615;BME280;3343;42.896;23.912;2023-04-10T05:40:25;73654.66;;;-145.80;69.64
6615;BME280;3343;42.896;23.912;2023-04-10T05:42:51;73654.66;;;-145.80;69.90
6615;BME280;3343;42.896;23.912;2023-04-10T05:45:19;73604.53;;;-145.80;69.39
6615;BME280;3343;42.896;23.912;2023-04-10T05:47:46;73624.59;;;-145.80;69.00
6615;BME280;3343;42.896;23.912;2023-04-10T05:50:13;73606.53;;;-145.80;69.29
6615;BME280;3343;42.896;23.912;2023-04-10T05:52:41;73566.41;;;-145.80;68.87
6615;BME280;3343;42.896;23.912;2023-04-10T05:55:08;73572.44;;;-145.80;68.75
6615;BME280;3343;42.896;23.912;2023-04-10T05:57:35;73544.34;;;-145.80;68.25
6615;BME280;3343;42.896;23.912;2023-04-10T06:00:02;73508.25;;;-145.80;67.88
6615;BME280;3343;42.896;23.912;2023-04-10T06:02:31;73490.19;;;-145.80;66.74
6615;BME280;3343;42.896;23.912;2023-04-10T06:04:57;73510.25;;;-145.80;66.46
6615;BME280;3343;42.896;23.912;2023-04-10T06:07:25;73492.19;;;-145.80;66.37
6615;BME280;3343;42.896;23.912;2023-04-10T06:09:51;73484.19;;;-145.80;66.60
6615;BME280;3343;42.896;23.912;2023-04-10T06:12:18;73482.16;;;-145.80;66.38
6615;BME280;3343;42.896;23.912;2023-04-10T06:14:46;73480.16;;;-145.80;66.19
6615;BME280;3343;42.896;23.912;2023-04-10T06:17:13;73526.28;;;-145.80;66.25
6615;BME280;3343;42.896;23.912;2023-04-10T06:19:41;73530.31;;;-145.80;66.67
6615;BME280;3343;42.896;23.912;2023-04-10T06:22:08;73530.31;;;-145.80;67.08
6615;BME280;3343;42.896;23.912;2023-04-10T06:24:35;73514.25;;;-145.80;66.75
6615;BME280;3343;42.896;23.912;2023-04-10T06:27:02;73488.19;;;-145.80;65.65
6615;BME280;3343;42.896;23.912;2023-04-10T06:29:28;73470.13;;;-145.80;65.70
6615;BME280;3343;42.896;23.912;2023-04-10T06:31:55;73470.13;;;-145.80;64.59
6615;BME280;3343;42.896;23.912;2023-04-10T06:34:22;73474.16;;;-145.80;64.63
6615;BME280;3343;42.896;23.912;2023-04-10T06:36:50;73438.03;;;-145.80;64.47
6615;BME280;3343;42.896;23.912;2023-04-10T06:39:17;73434.03;;;-145.80;64.05
6615;BME280;3343;42.896;23.912;2023-04-10T06:41:44;73407.97;;;-145.80;64.52
6615;BME280;3343;42.896;23.912;2023-04-10T06:44:11;73399.94;;;-145.80;62.74
6615;BME280;3343;42.896;23.912;2023-04-10T06:46:37;73367.84;;;-145.80;62.68
6615;BME280;3343;42.896;23.912;2023-04-10T06:49:04;73337.75;;;-145.80;61.74
6615;BME280;3343;42.896;23.912;2023-04-10T06:51:31;73339.75;;;-145.80;60.75
6615;BME280;3343;42.896;23.912;2023-04-10T06:53:59;73327.72;;;-145.80;61.88
6615;BME280;3343;42.896;23.912;2023-04-10T06:56:26;73313.69;;;-145.80;61.51
6615;BME280;3343;42.896;23.912;2023-04-10T06:58:53;73269.56;;;-145.80;61.32
6615;BME280;3343;42.896;23.912;2023-04-10T07:01:20;73225.44;;;-145.80;60.87
6615;BME280;3343;42.896;23.912;2023-04-10T07:03:47;73209.41;;;-145.80;59.76
6615;BME280;3343;42.896;23.912;2023-04-10T07:06:14;73279.59;;;-145.80;57.20
6615;BME280;3343;42.896;23.912;2023-04-10T07:08:42;73295.63;;;-145.80;58.31
6615;BME280;3343;42.896;23.912;2023-04-10T07:11:10;73291.63;;;-145.80;59.25
6615;BME280;3343;42.896;23.912;2023-04-10T07:13:37;73345.78;;;-145.80;60.24
6615;BME280;3343;42.896;23.912;2023-04-10T07:16:05;73343.78;;;-145.80;61.07
6615;BME280;3343;42.896;23.912;2023-04-10T07:18:33;73377.88;;;-145.80;62.09
6615;BME280;3343;42.896;23.912;2023-04-10T07:21:00;73381.88;;;-145.80;62.43
6615;BME280;3343;42.896;23.912;2023-04-10T07:23:26;73317.69;;;-145.80;61.77
6615;BME280;3343;42.896;23.912;2023-04-10T07:25:53;73315.69;;;-145.80;58.85
6615;BME280;3343;42.896;23.912;2023-04-10T07:28:23;73291.63;;;-145.80;59.08
6615;BME280;3343;42.896;23.912;2023-04-10T07:30:50;73335.75;;;-145.80;59.11
6615;BME280;3343;42.896;23.912;2023-04-10T07:33:17;73341.78;;;-145.80;59.38
6615;BME280;3343;42.896;23.912;2023-04-10T07:35:44;73347.78;;;-145.80;56.62
6615;BME280;3343;42.896;23.912;2023-04-10T07:38:11;73347.78;;;-145.80;56.87
6615;BME280;3343;42.896;23.912;2023-04-10T07:40:38;73353.81;;;-145.80;59.72
6615;BME280;3343;42.896;23.912;2023-04-10T07:43:05;73321.72;;;-145.80;60.09
6615;BME280;3343;42.896;23.912;2023-04-10T07:45:33;73279.59;;;-145.80;58.88
6615;BME280;3343;42.896;23.912;2023-04-10T07:48:00;73335.75;;;-145.80;55.82
6615;BME280;3343;42.896;23.912;2023-04-10T07:50:28;73353.81;;;-145.80;57.39
6615;BME280;3343;42.896;23.912;2023-04-10T07:52:54;73385.91;;;-145.80;57.23
6615;BME280;3343;42.896;23.912;2023-04-10T07:55:21;73373.84;;;-145.80;58.30
6615;BME280;3343;42.896;23.912;2023-04-10T07:57:48;73313.69;;;-145.80;59.38
6615;BME280;3343;42.896;23.912;2023-04-10T08:00:17;73285.59;;;-145.80;58.22
6615;BME280;3343;42.896;23.912;2023-04-10T08:02:45;73265.56;;;-145.80;56.31
6615;BME280;3343;42.896;23.912;2023-04-10T08:05:11;73325.72;;;-145.80;56.49
6615;BME280;3343;42.896;23.912;2023-04-10T08:07:38;73287.63;;;-145.80;54.63
6615;BME280;3343;42.896;23.912;2023-04-10T08:10:06;73291.63;;;-145.80;55.63
6615;BME280;3343;42.896;23.912;2023-04-10T08:12:33;73321.72;;;-145.80;56.48
6615;BME280;3343;42.896;23.912;2023-04-10T08:14:59;73351.78;;;-145.80;55.68
6615;BME280;3343;42.896;23.912;2023-04-10T08:17:27;73287.63;;;-145.80;55.66
6615;BME280;3343;42.896;23.912;2023-04-10T08:19:55;73309.69;;;-145.80;55.58
6615;BME280;3343;42.896;23.912;2023-04-10T08:22:22;73337.75;;;-145.80;55.25
6615;BME280;3343;42.896;23.912;2023-04-10T08:24:49;73303.66;;;-145.80;54.86
6615;BME280;3343;42.896;23.912;2023-04-10T08:27:16;73279.59;;;-145.80;56.22
6615;BME280;3343;42.896;23.912;2023-04-10T08:29:43;73221.44;;;-145.80;52.84
6615;BME280;3343;42.896;23.912;2023-04-10T08:32:10;73205.38;;;-145.80;51.51
6615;BME280;3343;42.896;23.912;2023-04-10T08:34:37;73147.22;;;-145.80;52.84
6615;BME280;3343;42.896;23.912;2023-04-10T08:37:06;73101.09;;;-145.80;53.21
6615;BME280;3343;42.896;23.912;2023-04-10T08:39:34;73125.16;;;-145.80;51.05
6615;BME280;3343;42.896;23.912;2023-04-10T08:42:01;73117.13;;;-145.80;50.76
6615;BME280;3343;42.896;23.912;2023-04-10T08:44:28;73115.13;;;-145.80;50.13
6615;BME280;3343;42.896;23.912;2023-04-10T08:46:58;73117.13;;;-145.80;49.32
6615;BME280;3343;42.896;23.912;2023-04-10T08:49:31;73165.28;;;-145.80;50.02
6615;BME280;3343;42.896;23.912;2023-04-10T08:52:01;73199.38;;;-145.80;50.49
6615;BME280;3343;42.896;23.912;2023-04-10T08:54:32;73161.25;;;-145.80;50.43
6615;BME280;3343;42.896;23.912;2023-04-10T08:57:00;73125.16;;;-145.80;52.49
6615;BME280;3343;42.896;23.912;2023-04-10T08:59:28;73141.19;;;-145.80;51.13
6615;BME280;3343;42.896;23.912;2023-04-10T09:01:55;73103.09;;;-145.80;51.75
6615;BME280;3343;42.896;23.912;2023-04-10T09:04:23;73048.94;;;-145.80;50.25
6615;BME280;3343;42.896;23.912;2023-04-10T09:06:51;73004.81;;;-145.80;50.20
6615;BME280;3343;42.896;23.912;2023-04-10T09:09:18;73024.88;;;-145.80;46.20
6615;BME280;3343;42.896;23.912;2023-04-10T09:12:00;73056.97;;;-145.80;45.69
6615;BME280;3343;42.896;23.912;2023-04-10T09:14:29;73097.09;;;-145.80;46.18
6615;BME280;3343;42.896;23.912;2023-04-10T09:17:16;73087.06;;;-145.80;45.27
6615;BME280;3343;42.896;23.912;2023-04-10T09:19:44;73115.13;;;-145.80;47.38
6615;BME280;3343;42.896;23.912;2023-04-10T09:22:11;73087.06;;;-145.80;45.96
6615;BME280;3343;42.896;23.912;2023-04-10T09:24:40;73147.22;;;-145.80;47.78
6615;BME280;3343;42.896;23.912;2023-04-10T09:27:09;73155.25;;;-145.80;48.35
6615;BME280;3343;42.896;23.912;2023-04-10T09:29:42;73123.16;;;-145.80;46.70
6615;BME280;3343;42.896;23.912;2023-04-10T09:32:09;73165.28;;;-145.80;44.26
6615;BME280;3343;42.896;23.912;2023-04-10T09:34:51;73131.19;;;-145.80;44.12
6615;BME280;3343;42.896;23.912;2023-04-10T09:37:19;73215.41;;;-145.80;45.10
6615;BME280;3343;42.896;23.912;2023-04-10T09:39:47;73193.34;;;-145.80;44.65
6615;BME280;3343;42.896;23.912;2023-04-10T09:42:15;73137.19;;;-145.80;44.43
6615;BME280;3343;42.896;23.912;2023-04-10T09:44:54;73203.38;;;-145.80;44.56
6615;BME280;3343;42.896;23.912;2023-04-10T09:47:21;73205.38;;;-145.80;44.41
6615;BME280;3343;42.896;23.912;2023-04-10T09:49:49;73201.38;;;-145.80;45.57
6615;BME280;3343;42.896;23.912;2023-04-10T09:52:18;73169.28;;;-145.80;43.67
6615;BME280;3343;42.896;23.912;2023-04-10T09:54:45;73161.25;;;-145.80;42.58
6615;BME280;3343;42.896;23.912;2023-04-10T09:57:13;73121.16;;;-145.80;44.92
6615;BME280;3343;42.896;23.912;2023-04-10T09:59:47;73056.97;;;-145.80;41.36
6615;BME280;3343;42.896;23.912;2023-04-10T10:02:16;73048.94;;;-145.80;42.16
6615;BME280;3343;42.896;23.912;2023-04-10T10:04:44;73065.00;;;-145.80;41.82
6615;BME280;3343;42.896;23.912;2023-04-10T10:07:13;73085.03;;;-145.80;41.31
6615;BME280;3343;42.896;23.912;2023-04-10T10:09:41;73125.16;;;-145.80;42.58
6615;BME280;3343;42.896;23.912;2023-04-10T10:12:09;73171.28;;;-145.80;41.21
6615;BME280;3343;42.896;23.912;2023-04-10T10:14:42;73197.38;;;-145.80;43.57
6615;BME280;3343;42.896;23.912;2023-04-10T10:17:14;73197.38;;;-145.80;43.14
6615;BME280;3343;42.896;23.912;2023-04-10T10:19:52;73165.28;;;-145.80;42.87
6615;BME280;3343;42.896;23.912;2023-04-10T10:22:20;73171.28;;;-145.80;42.20
6615;BME280;3343;42.896;23.912;2023-04-10T10:24:49;73183.31;;;-145.80;43.25
6615;BME280;3343;42.896;23.912;2023-04-10T10:27:22;73163.25;;;-145.80;41.97
6615;BME280;3343;42.896;23.912;2023-04-10T10:29:52;73203.38;;;-145.80;40.98
6615;BME280;3343;42.896;23.912;2023-04-10T10:32:20;73245.50;;;-145.80;43.16
6615;BME280;3343;42.896;23.912;2023-04-10T10:34:51;73269.56;;;-145.80;43.96
6615;BME280;3343;42.896;23.912;2023-04-10T10:37:18;73231.47;;;-145.80;42.11
6615;BME280;3343;42.896;23.912;2023-04-10T10:39:51;73185.31;;;-145.80;41.21
6615;BME280;3343;42.896;23.912;2023-04-10T10:42:22;73209.41;;;-145.80;41.05
6615;BME280;3343;42.896;23.912;2023-04-10T10:44:58;73219.41;;;-145.80;44.04
6615;BME280;3343;42.896;23.912;2023-04-10T10:47:29;73171.28;;;-145.80;42.89
6615;BME280;3343;42.896;23.912;2023-04-10T10:49:59;73171.28;;;-145.80;43.64
6615;BME280;3343;42.896;23.912;2023-04-10T10:52:36;73191.34;;;-145.80;45.03
6615;BME280;3343;42.896;23.912;2023-04-10T10:55:28;73183.31;;;-145.80;44.68
6615;BME280;3343;42.896;23.912;2023-04-10T10:57:58;73321.72;;;-145.80;49.51
6615;BME280;3343;42.896;23.912;2023-04-10T11:00:27;73413.97;;;-145.80;53.68
6615;BME280;3343;42.896;23.912;2023-04-10T11:03:29;73430.03;;;-145.80;54.50
6615;BME280;3343;42.896;23.912;2023-04-10T11:05:57;73536.31;;;-145.80;58.35
6615;BME280;3343;42.896;23.912;2023-04-10T11:08:44;73508.25;;;-145.80;59.25
6615;BME280;3343;42.896;23.912;2023-04-10T11:11:18;73518.28;;;-145.80;60.69
6615;BME280;3343;42.896;23.912;2023-04-10T11:14:11;73536.31;;;-145.80;61.89
6615;BME280;3343;42.896;23.912;2023-04-10T11:16:44;73542.34;;;-145.80;62.96
6615;BME280;3343;42.896;23.912;2023-04-10T11:19:12;73606.53;;;-145.80;64.21
6615;BME280;3343;42.896;23.912;2023-04-10T11:22:15;73628.59;;;-145.80;65.07
6615;BME280;3343;42.896;23.912;2023-04-10T11:24:55;73542.34;;;-145.80;63.26
6615;BME280;3343;42.896;23.912;2023-04-10T11:27:40;73540.34;;;-145.80;62.71
6615;BME280;3343;42.896;23.912;2023-04-10T11:30:29;73568.41;;;-145.80;64.64
6615;BME280;3343;42.896;23.912;2023-04-10T11:32:56;73598.50;;;-145.80;67.16
6615;BME280;3343;42.896;23.912;2023-04-10T11:35:26;73558.38;;;-145.80;62.88
6615;BME280;3343;42.896;23.912;2023-04-10T11:38:08;73468.13;;;-145.80;61.22
6615;BME280;3343;42.896;23.912;2023-04-10T11:40:35;73558.38;;;-145.80;62.02
6615;BME280;3343;42.896;23.912;2023-04-10T11:43:12;73570.44;;;-145.80;65.39
6615;BME280;3343;42.896;23.912;2023-04-10T11:45:39;73600.50;;;-145.80;62.57
6615;BME280;3343;42.896;23.912;2023-04-10T11:48:06;73586.47;;;-145.80;63.87
6615;BME280;3343;42.896;23.912;2023-04-10T11:50:35;73526.28;;;-145.80;63.99
6615;BME280;3343;42.896;23.912;2023-04-10T11:53:16;73424.00;;;-145.80;60.51
6615;BME280;3343;42.896;23.912;2023-04-10T11:55:43;73413.97;;;-145.80;60.15
6615;BME280;3343;42.896;23.912;2023-04-10T11:58:21;73303.66;;;-145.80;59.49
6615;BME280;3343;42.896;23.912;2023-04-10T12:00:57;73275.56;;;-145.80;59.07
6615;BME280;3343;42.896;23.912;2023-04-10T12:03:35;73243.50;;;-145.80;57.74
6615;BME280;3343;42.896;23.912;2023-04-10T12:06:06;73261.53;;;-145.80;57.82
6615;BME280;3343;42.896;23.912;2023-04-10T12:08:36;73281.59;;;-145.80;56.86
6615;BME280;3343;42.896;23.912;2023-04-10T12:11:03;73315.69;;;-145.80;56.68
6615;BME280;3343;42.896;23.912;2023-04-10T12:13:31;73313.69;;;-145.80;57.33
6615;BME280;3343;42.896;23.912;2023-04-10T12:15:58;73305.66;;;-145.80;58.43
6615;BME280;3343;42.896;23.912;2023-04-10T12:18:27;73287.63;;;-145.80;59.79
6615;BME280;3343;42.896;23.912;2023-04-10T12:20:54;73339.75;;;-145.80;60.08
6615;BME280;3343;42.896;23.912;2023-04-10T12:23:24;73261.53;;;-145.80;59.26
6615;BME280;3343;42.896;23.912;2023-04-10T12:25:52;73321.72;;;-145.80;59.79
6615;BME280;3343;42.896;23.912;2023-04-10T12:28:20;73277.59;;;-145.80;59.77
6615;BME280;3343;42.896;23.912;2023-04-10T12:30:48;73383.88;;;-145.80;57.72
6615;BME280;3343;42.896;23.912;2023-04-10T12:33:20;73277.59;;;-145.80;58.23
6615;BME280;3343;42.896;23.912;2023-04-10T12:35:48;73265.56;;;-145.80;58.08
6615;BME280;3343;42.896;23.912;2023-04-10T12:38:15;73263.53;;;-145.80;57.51
6615;BME280;3343;42.896;23.912;2023-04-10T12:40:58;73255.53;;;-145.80;56.24
6615;BME280;3343;42.896;23.912;2023-04-10T12:43:32;73271.56;;;-145.80;56.19
6615;BME280;3343;42.896;23.912;2023-04-10T12:46:00;73247.50;;;-145.80;55.38
6615;BME280;3343;42.896;23.912;2023-04-10T12:48:27;73309.69;;;-145.80;54.92
6615;BME280;3343;42.896;23.912;2023-04-10T12:50:55;73301.66;;;-145.80;56.06
6615;BME280;3343;42.896;23.912;2023-04-10T12:53:22;73355.81;;;-145.80;58.45
6615;BME280;3343;42.896;23.912;2023-04-10T12:55:58;73253.53;;;-145.80;56.81
6615;BME280;3343;42.896;23.912;2023-04-10T12:58:25;73337.75;;;-145.80;56.79
6615;BME280;3343;42.896;23.912;2023-04-10T13:00:57;73305.66;;;-145.80;57.62
6615;BME280;3343;42.896;23.912;2023-04-10T13:03:25;73369.84;;;-145.80;58.01